createdAt,value
2022-11-19T00:01:13.591Z,8.80
2022-11-19T00:03:41.677Z,8.80
2022-11-19T00:06:16.703Z,8.80
2022-11-19T00:08:43.850Z,8.80
2022-11-19T00:11:39.990Z,8.80
2022-11-19T00:14:12.401Z,8.80
2022-11-19T00:16:39.346Z,8.70
2022-11-19T00:19:06.177Z,8.70
2022-11-19T00:21:32.952Z,8.70
2022-11-19T00:23:59.773Z,8.70
2022-11-19T00:26:26.692Z,8.70
2022-11-19T00:28:55.275Z,8.70
2022-11-19T00:31:22.139Z,8.70
2022-11-19T00:33:54.210Z,8.70
2022-11-19T00:36:21.199Z,8.70
2022-11-19T00:38:47.997Z,8.70
2022-11-19T00:41:15.003Z,8.70
2022-11-19T00:43:47.951Z,8.70
2022-11-19T00:46:18.976Z,8.70
2022-11-19T00:48:47.020Z,8.70
2022-11-19T00:51:14.807Z,8.70
2022-11-19T00:53:41.697Z,8.70
2022-11-19T00:56:11.143Z,8.70
2022-11-19T00:58:38.569Z,8.70
2022-11-19T01:01:06.312Z,8.70
2022-11-19T01:03:33.569Z,8.70
2022-11-19T01:06:00.328Z,8.70
2022-11-19T01:08:27.169Z,8.70
2022-11-19T01:10:54.107Z,8.70
2022-11-19T01:13:36.143Z,8.70
2022-11-19T01:16:06.008Z,8.70
2022-11-19T01:18:33.305Z,8.70
2022-11-19T01:21:00.087Z,8.70
2022-11-19T01:23:26.977Z,8.70
2022-11-19T01:25:53.813Z,8.70
2022-11-19T01:28:20.554Z,8.70
2022-11-19T01:30:47.326Z,8.70
2022-11-19T01:33:14.166Z,8.60
2022-11-19T01:35:40.931Z,8.70
2022-11-19T01:38:07.717Z,8.60
2022-11-19T01:40:41.779Z,8.60
2022-11-19T01:43:13.050Z,8.60
2022-11-19T01:45:43.926Z,8.60
2022-11-19T01:48:31.122Z,8.60
2022-11-19T01:51:14.370Z,8.60
2022-11-19T01:53:44.280Z,8.60
2022-11-19T01:56:11.542Z,8.60
2022-11-19T01:58:41.103Z,8.60
2022-11-19T02:01:08.697Z,8.60
2022-11-19T02:03:37.014Z,8.60
2022-11-19T02:06:04.149Z,8.60
2022-11-19T02:08:44.130Z,8.60
2022-11-19T02:11:26.117Z,8.60
2022-11-19T02:14:17.690Z,8.60
2022-11-19T02:17:12.082Z,8.50
2022-11-19T02:19:41.787Z,8.60
2022-11-19T02:22:26.209Z,8.60
2022-11-19T02:24:54.140Z,8.60
2022-11-19T02:27:29.277Z,8.60
2022-11-19T02:30:04.082Z,8.50
2022-11-19T02:32:45.037Z,8.50
2022-11-19T02:35:18.131Z,8.50
2022-11-19T02:37:52.088Z,8.50
2022-11-19T02:40:26.692Z,8.50
2022-11-19T02:42:59.873Z,8.50
2022-11-19T02:45:32.832Z,8.50
2022-11-19T02:48:06.872Z,8.50
2022-11-19T02:50:37.278Z,8.50
2022-11-19T02:53:04.892Z,8.40
2022-11-19T02:55:32.227Z,8.40
2022-11-19T02:58:08.890Z,8.50
2022-11-19T03:01:04.136Z,8.40
2022-11-19T03:03:50.099Z,8.40
2022-11-19T03:06:20.846Z,8.40
2022-11-19T03:08:47.847Z,8.40
2022-11-19T03:11:28.540Z,8.40
2022-11-19T03:14:17.940Z,8.40
2022-11-19T03:16:56.059Z,8.40
2022-11-19T03:19:34.193Z,8.30
2022-11-19T03:22:08.567Z,8.30
2022-11-19T03:24:42.396Z,8.30
2022-11-19T03:27:15.537Z,8.30
2022-11-19T03:29:47.796Z,8.30
2022-11-19T03:32:21.505Z,8.30
2022-11-19T03:34:51.019Z,8.30
2022-11-19T03:37:19.812Z,8.30
2022-11-19T03:39:47.911Z,8.30
2022-11-19T03:42:16.136Z,8.30
2022-11-19T03:44:52.074Z,8.30
2022-11-19T03:47:22.090Z,8.30
2022-11-19T03:49:52.221Z,8.30
2022-11-19T03:52:20.820Z,8.30
2022-11-19T03:54:47.726Z,8.30
2022-11-19T03:57:17.747Z,8.30
2022-11-19T03:59:45.068Z,8.30
2022-11-19T04:02:12.889Z,8.30
2022-11-19T04:04:39.726Z,8.30
2022-11-19T04:07:15.828Z,8.20
2022-11-19T04:09:43.135Z,8.20
2022-11-19T04:12:21.625Z,8.20
2022-11-19T04:14:48.950Z,8.20
2022-11-19T04:17:17.019Z,8.20
2022-11-19T04:19:43.889Z,8.20
2022-11-19T04:22:11.017Z,8.20
2022-11-19T04:24:37.778Z,8.20
2022-11-19T04:27:04.552Z,8.20
2022-11-19T04:29:31.253Z,8.10
2022-11-19T04:31:58.039Z,8.10
2022-11-19T04:34:24.812Z,8.20
2022-11-19T04:36:51.571Z,8.10
2022-11-19T04:39:18.978Z,8.20
2022-11-19T04:41:45.946Z,8.10
2022-11-19T04:44:12.700Z,8.10
2022-11-19T04:46:39.395Z,8.10
2022-11-19T04:49:06.249Z,8.20
2022-11-19T04:51:32.980Z,8.20
2022-11-19T04:53:59.715Z,8.10
2022-11-19T04:56:26.452Z,8.20
2022-11-19T04:58:53.215Z,8.10
2022-11-19T05:01:20.694Z,8.10
2022-11-19T05:03:48.517Z,8.10
2022-11-19T05:06:15.972Z,8.10
2022-11-19T05:08:42.834Z,8.10
2022-11-19T05:11:09.757Z,8.10
2022-11-19T05:13:36.554Z,8.10
2022-11-19T05:16:03.540Z,8.10
2022-11-19T05:18:30.432Z,8.10
2022-11-19T05:20:57.215Z,8.10
2022-11-19T05:23:24.430Z,8.10
2022-11-19T05:25:51.607Z,8.10
2022-11-19T05:28:18.557Z,8.10
2022-11-19T05:30:45.438Z,8.20
2022-11-19T05:33:12.251Z,8.10
2022-11-19T05:35:38.970Z,8.10
2022-11-19T05:38:06.592Z,8.10
2022-11-19T05:40:33.380Z,8.10
2022-11-19T05:43:05.935Z,8.10
2022-11-19T05:45:33.277Z,8.10
2022-11-19T05:48:00.107Z,8.10
2022-11-19T05:50:26.996Z,8.10
2022-11-19T05:52:53.720Z,8.10
2022-11-19T05:55:20.854Z,8.10
2022-11-19T05:57:47.667Z,8.10
2022-11-19T06:00:16.196Z,8.00
2022-11-19T06:02:43.014Z,8.00
2022-11-19T06:05:10.641Z,8.00
2022-11-19T06:07:37.573Z,7.90
2022-11-19T06:10:05.113Z,7.90
2022-11-19T06:12:31.944Z,7.90
2022-11-19T06:14:58.770Z,7.80
2022-11-19T06:17:25.505Z,7.80
2022-11-19T06:19:52.287Z,7.80
2022-11-19T06:22:19.010Z,7.70
2022-11-19T06:24:45.761Z,7.70
2022-11-19T06:27:12.526Z,7.60
2022-11-19T06:29:39.323Z,7.60
2022-11-19T06:32:06.125Z,7.50
2022-11-19T06:34:32.858Z,7.50
2022-11-19T06:37:00.173Z,7.50
2022-11-19T06:39:26.924Z,7.50
2022-11-19T06:41:53.837Z,7.40
2022-11-19T06:44:20.615Z,7.40
2022-11-19T06:46:47.351Z,7.30
2022-11-19T06:49:19.629Z,7.30
2022-11-19T06:51:46.840Z,7.30
2022-11-19T06:54:13.668Z,7.20
2022-11-19T06:56:40.484Z,7.30
2022-11-19T06:59:07.220Z,7.30
2022-11-19T07:01:34.220Z,7.20
2022-11-19T07:04:01.041Z,7.20
2022-11-19T07:06:27.818Z,7.20
2022-11-19T07:08:54.507Z,7.10
2022-11-19T07:11:27.411Z,7.10
2022-11-19T07:13:57.545Z,7.00
2022-11-19T07:16:32.905Z,6.90
2022-11-19T07:19:01.375Z,6.80
2022-11-19T07:21:29.056Z,6.80
2022-11-19T07:23:57.571Z,6.90
2022-11-19T07:26:24.826Z,6.80
2022-11-19T07:28:51.875Z,6.80
2022-11-19T07:31:19.112Z,6.80
2022-11-19T07:33:45.872Z,6.70
2022-11-19T07:36:16.990Z,6.60
2022-11-19T07:38:45.654Z,6.50
2022-11-19T07:41:31.671Z,6.50
2022-11-19T07:43:58.513Z,6.50
2022-11-19T07:46:25.382Z,6.50
2022-11-19T07:48:54.348Z,6.50
2022-11-19T07:51:21.461Z,6.50
2022-11-19T07:53:48.308Z,6.40
2022-11-19T07:56:15.439Z,6.40
2022-11-19T07:58:42.207Z,6.40
2022-11-19T08:01:14.483Z,6.40
2022-11-19T08:03:46.187Z,6.40
2022-11-19T08:06:14.561Z,6.40
2022-11-19T08:08:42.232Z,6.40
2022-11-19T08:11:10.452Z,6.30
2022-11-19T08:13:37.676Z,6.30
2022-11-19T08:16:06.886Z,6.30
2022-11-19T08:18:33.690Z,6.20
2022-11-19T08:21:09.354Z,6.20
2022-11-19T08:23:37.207Z,6.20
2022-11-19T08:26:06.793Z,6.20
2022-11-19T08:28:34.047Z,6.10
2022-11-19T08:31:08.296Z,6.10
2022-11-19T08:33:35.747Z,6.10
2022-11-19T08:36:02.545Z,6.00
2022-11-19T08:38:31.468Z,6.00
2022-11-19T08:41:19.960Z,6.00
2022-11-19T08:43:46.752Z,6.00
2022-11-19T08:46:13.896Z,6.10
2022-11-19T08:48:40.689Z,6.00
2022-11-19T08:51:10.202Z,5.90
2022-11-19T08:53:37.398Z,5.80
2022-11-19T08:56:05.349Z,5.80
2022-11-19T08:58:32.428Z,5.80
2022-11-19T09:00:59.403Z,5.80
2022-11-19T09:03:26.306Z,5.80
2022-11-19T09:06:00.211Z,5.80
2022-11-19T09:08:27.279Z,5.80
2022-11-19T09:10:54.103Z,5.80
2022-11-19T09:13:20.961Z,5.80
2022-11-19T09:15:48.884Z,5.80
2022-11-19T09:18:15.943Z,5.70
2022-11-19T09:20:43.016Z,5.70
2022-11-19T09:23:10.224Z,5.70
2022-11-19T09:25:37.080Z,5.70
2022-11-19T09:28:04.054Z,5.60
2022-11-19T09:30:30.826Z,5.60
2022-11-19T09:32:59.518Z,5.50
2022-11-19T09:35:28.202Z,5.50
2022-11-19T09:37:54.957Z,5.50
2022-11-19T09:40:23.368Z,5.50
2022-11-19T09:43:07.744Z,5.40
2022-11-19T09:45:57.577Z,5.40
2022-11-19T09:48:38.463Z,5.40
2022-11-19T09:51:16.204Z,5.40
2022-11-19T09:53:47.475Z,5.40
2022-11-19T09:56:18.399Z,5.30
2022-11-19T09:58:45.508Z,5.30
2022-11-19T10:01:17.446Z,5.40
2022-11-19T10:03:49.850Z,5.30
2022-11-19T10:06:29.648Z,5.30
2022-11-19T10:09:55.394Z,5.30
2022-11-19T10:12:45.097Z,5.30
2022-11-19T10:15:30.912Z,5.30
2022-11-19T10:18:18.940Z,5.20
2022-11-19T10:21:00.399Z,5.20
2022-11-19T10:23:45.024Z,5.20
2022-11-19T10:26:34.231Z,5.20
2022-11-19T10:29:02.212Z,5.20
2022-11-19T10:31:37.035Z,5.20
2022-11-19T10:34:09.250Z,5.10
2022-11-19T10:36:42.893Z,5.20
2022-11-19T10:39:32.716Z,5.10
2022-11-19T10:42:26.733Z,5.10
2022-11-19T10:44:56.756Z,5.10
2022-11-19T10:47:44.358Z,5.10
2022-11-19T10:50:24.954Z,5.10
2022-11-19T10:53:23.125Z,5.10
2022-11-19T10:55:54.691Z,5.10
2022-11-19T10:58:23.310Z,5.10
2022-11-19T11:00:53.584Z,5.00
2022-11-19T11:03:34.627Z,5.00
2022-11-19T11:06:10.031Z,5.00
2022-11-19T11:08:52.905Z,5.00
2022-11-19T11:11:47.129Z,5.00
2022-11-19T11:14:34.240Z,5.00
2022-11-19T11:17:02.108Z,5.00
2022-11-19T11:19:28.987Z,4.90
2022-11-19T11:21:56.293Z,4.90
2022-11-19T11:24:31.897Z,4.90
2022-11-19T11:27:18.277Z,4.90
2022-11-19T11:29:45.079Z,4.90
2022-11-19T11:32:30.867Z,4.90
2022-11-19T11:35:01.175Z,4.90
2022-11-19T11:37:30.422Z,4.90
2022-11-19T11:39:57.983Z,4.90
2022-11-19T11:42:26.643Z,4.90
2022-11-19T11:44:59.246Z,4.90
2022-11-19T11:47:32.298Z,4.80
2022-11-19T11:50:05.090Z,4.90
2022-11-19T11:52:40.562Z,4.80
2022-11-19T11:55:14.741Z,4.80
2022-11-19T11:57:56.067Z,4.80
2022-11-19T12:00:43.831Z,4.80
2022-11-19T12:03:18.730Z,4.80
2022-11-19T12:05:57.700Z,4.70
2022-11-19T12:08:46.486Z,4.60
2022-11-19T12:11:57.368Z,4.70
2022-11-19T12:14:29.281Z,4.60
2022-11-19T12:17:05.065Z,4.60
2022-11-19T12:20:05.638Z,4.60
2022-11-19T12:22:32.337Z,4.60
2022-11-19T12:25:30.411Z,4.60
2022-11-19T12:28:12.513Z,4.60
2022-11-19T12:31:00.332Z,4.50
2022-11-19T12:33:33.332Z,4.60
2022-11-19T12:36:13.679Z,4.60
2022-11-19T12:38:43.753Z,4.60
2022-11-19T12:41:26.943Z,4.50
2022-11-19T12:43:57.571Z,4.50
2022-11-19T12:46:49.339Z,4.50
2022-11-19T12:49:33.235Z,4.50
2022-11-19T12:52:06.045Z,4.50
2022-11-19T12:54:44.457Z,4.50
2022-11-19T12:57:46.274Z,4.50
2022-11-19T13:00:16.942Z,4.50
2022-11-19T13:03:09.062Z,4.50
2022-11-19T13:05:48.038Z,4.40
2022-11-19T13:08:25.254Z,4.60
2022-11-19T13:11:00.548Z,4.60
2022-11-19T13:13:29.596Z,4.60
2022-11-19T13:16:04.436Z,4.60
2022-11-19T13:18:33.646Z,4.60
2022-11-19T13:21:03.358Z,4.60
2022-11-19T13:23:41.342Z,4.60
2022-11-19T13:26:30.045Z,4.60
2022-11-19T13:29:25.535Z,4.60
2022-11-19T13:32:06.880Z,4.50
2022-11-19T13:34:39.656Z,4.50
2022-11-19T13:37:14.989Z,4.50
2022-11-19T13:39:56.312Z,4.50
2022-11-19T13:42:41.685Z,4.50
2022-11-19T13:45:14.729Z,4.50
2022-11-19T13:47:58.007Z,4.50
2022-11-19T13:50:29.541Z,4.50
2022-11-19T13:53:26.060Z,4.50
2022-11-19T13:55:57.299Z,4.40
2022-11-19T13:58:32.929Z,4.50
2022-11-19T14:01:19.488Z,4.50
2022-11-19T14:04:17.328Z,4.50
2022-11-19T14:07:00.639Z,4.50
2022-11-19T14:09:42.767Z,4.60
2022-11-19T14:12:24.847Z,4.50
2022-11-19T14:16:02.718Z,4.50
2022-11-19T14:18:56.895Z,4.50
2022-11-19T14:21:45.269Z,4.50
2022-11-19T14:24:46.143Z,4.40
2022-11-19T14:27:19.159Z,4.40
2022-11-19T14:29:45.895Z,4.40
2022-11-19T14:32:12.641Z,4.40
2022-11-19T14:34:46.939Z,4.40
2022-11-19T14:37:23.407Z,4.40
2022-11-19T14:40:01.428Z,4.40
2022-11-19T14:42:28.192Z,4.40
2022-11-19T14:44:58.103Z,4.40
2022-11-19T14:47:28.736Z,4.40
2022-11-19T14:50:00.818Z,4.30
2022-11-19T14:52:31.093Z,4.30
2022-11-19T14:55:07.277Z,4.40
2022-11-19T14:57:36.570Z,4.40
2022-11-19T15:00:16.057Z,4.30
2022-11-19T15:02:46.188Z,4.30
2022-11-19T15:05:12.969Z,4.30
2022-11-19T15:07:45.424Z,4.30
2022-11-19T15:10:15.423Z,4.30
2022-11-19T15:12:44.940Z,4.30
2022-11-19T15:15:20.610Z,4.30
2022-11-19T15:18:02.737Z,4.30
2022-11-19T15:20:57.079Z,4.30
2022-11-19T15:24:01.362Z,4.30
2022-11-19T15:26:47.518Z,4.30
2022-11-19T15:29:40.197Z,4.30
2022-11-19T15:32:10.013Z,4.30
2022-11-19T15:34:56.224Z,4.20
2022-11-19T15:37:43.198Z,4.30
2022-11-19T15:40:15.972Z,4.30
2022-11-19T15:42:58.632Z,4.30
2022-11-19T15:45:25.967Z,4.30
2022-11-19T15:48:24.585Z,4.30
2022-11-19T15:50:52.183Z,4.20
2022-11-19T15:53:23.950Z,4.20
2022-11-19T15:56:02.653Z,4.20
2022-11-19T15:58:40.817Z,4.20
2022-11-19T16:01:09.253Z,4.20
2022-11-19T16:03:39.596Z,4.20
2022-11-19T16:06:17.972Z,4.20
2022-11-19T16:08:45.988Z,4.20
2022-11-19T16:11:36.372Z,4.10
2022-11-19T16:14:21.680Z,4.10
2022-11-19T16:17:10.399Z,4.10
2022-11-19T16:19:37.238Z,4.10
2022-11-19T16:22:04.574Z,4.10
2022-11-19T16:24:50.592Z,4.20
2022-11-19T16:27:26.679Z,4.10
2022-11-19T16:29:53.826Z,4.10
2022-11-19T16:32:22.912Z,4.10
2022-11-19T16:34:49.996Z,4.10
2022-11-19T16:37:19.514Z,4.10
2022-11-19T16:39:53.249Z,4.10
2022-11-19T16:42:26.458Z,4.00
2022-11-19T16:45:04.208Z,4.00
2022-11-19T16:47:39.100Z,4.00
2022-11-19T16:50:07.031Z,4.00
2022-11-19T16:52:42.560Z,4.00
2022-11-19T16:55:18.540Z,4.00
2022-11-19T16:58:17.529Z,4.00
2022-11-19T17:00:50.004Z,4.00
2022-11-19T17:03:23.697Z,4.00
2022-11-19T17:05:52.314Z,4.00
2022-11-19T17:08:30.859Z,4.00
2022-11-19T17:11:39.435Z,3.90
2022-11-19T17:14:35.639Z,4.00
2022-11-19T17:17:03.780Z,3.90
2022-11-19T17:19:34.890Z,3.90
2022-11-19T17:22:06.334Z,3.90
2022-11-19T17:24:40.526Z,3.90
2022-11-19T17:27:07.503Z,3.90
2022-11-19T17:29:34.389Z,3.90
2022-11-19T17:32:03.694Z,3.90
2022-11-19T17:34:32.694Z,3.90
2022-11-19T17:37:00.052Z,3.90
2022-11-19T17:39:27.044Z,3.80
2022-11-19T17:42:15.167Z,3.80
2022-11-19T17:44:42.284Z,3.80
2022-11-19T17:47:23.155Z,3.80
2022-11-19T17:49:51.333Z,3.80
2022-11-19T17:52:29.514Z,3.80
2022-11-19T17:54:58.810Z,3.80
2022-11-19T17:57:25.664Z,3.80
2022-11-19T17:59:52.533Z,3.70
2022-11-19T18:02:20.604Z,3.80
2022-11-19T18:04:47.963Z,3.80
2022-11-19T18:07:15.265Z,3.70
2022-11-19T18:09:42.286Z,3.70
2022-11-19T18:12:15.574Z,3.70
2022-11-19T18:14:43.081Z,3.70
2022-11-19T18:17:14.644Z,3.70
2022-11-19T18:19:41.590Z,3.70
2022-11-19T18:22:17.269Z,3.70
2022-11-19T18:24:45.979Z,3.70
2022-11-19T18:27:12.708Z,3.60
2022-11-19T18:29:39.554Z,3.60
2022-11-19T18:32:06.355Z,3.60
2022-11-19T18:34:33.121Z,3.60
2022-11-19T18:36:59.900Z,3.70
2022-11-19T18:39:26.679Z,3.60
2022-11-19T18:41:53.437Z,3.60
2022-11-19T18:44:35.410Z,3.60
2022-11-19T18:47:04.745Z,3.60
2022-11-19T18:49:33.515Z,3.50
2022-11-19T18:52:01.150Z,3.50
2022-11-19T18:54:28.081Z,3.50
2022-11-19T18:56:54.928Z,3.50
2022-11-19T18:59:22.066Z,3.50
2022-11-19T19:01:49.603Z,3.50
2022-11-19T19:04:16.514Z,3.50
2022-11-19T19:06:43.486Z,3.50
2022-11-19T19:09:11.232Z,3.50
2022-11-19T19:11:56.833Z,3.50
2022-11-19T19:14:23.688Z,3.40
2022-11-19T19:16:51.042Z,3.50
2022-11-19T19:19:20.294Z,3.40
2022-11-19T19:21:47.716Z,3.40
2022-11-19T19:24:14.745Z,3.40
2022-11-19T19:26:41.690Z,3.40
2022-11-19T19:29:08.772Z,3.40
2022-11-19T19:31:36.193Z,3.40
2022-11-19T19:34:03.170Z,3.40
2022-11-19T19:36:30.378Z,3.40
2022-11-19T19:38:57.275Z,3.40
2022-11-19T19:41:25.872Z,3.40
2022-11-19T19:43:53.906Z,3.40
2022-11-19T19:46:22.183Z,3.40
2022-11-19T19:48:53.459Z,3.40
2022-11-19T19:51:22.344Z,3.40
2022-11-19T19:53:49.124Z,3.40
2022-11-19T19:56:22.403Z,3.40
2022-11-19T19:58:51.100Z,3.40
2022-11-19T20:01:22.202Z,3.50
2022-11-19T20:03:54.297Z,3.50
2022-11-19T20:06:23.448Z,3.50
2022-11-19T20:08:50.833Z,3.50
2022-11-19T20:11:26.625Z,3.50
2022-11-19T20:13:55.087Z,3.50
2022-11-19T20:16:27.210Z,3.50
2022-11-19T20:18:55.378Z,3.60
2022-11-19T20:21:27.593Z,3.50
2022-11-19T20:23:55.767Z,3.50
2022-11-19T20:26:24.971Z,3.50
2022-11-19T20:28:59.784Z,3.50
2022-11-19T20:31:27.562Z,3.50
2022-11-19T20:33:56.507Z,3.50
2022-11-19T20:36:24.582Z,3.50
2022-11-19T20:38:51.706Z,3.50
2022-11-19T20:41:38.654Z,3.50
2022-11-19T20:44:21.482Z,3.50
2022-11-19T20:46:53.242Z,3.50
2022-11-19T20:49:22.726Z,3.50
2022-11-19T20:51:50.728Z,3.50
2022-11-19T20:54:18.484Z,3.50
2022-11-19T20:56:45.338Z,3.50
2022-11-19T20:59:12.691Z,3.50
2022-11-19T21:01:39.503Z,3.50
2022-11-19T21:04:06.571Z,3.50
2022-11-19T21:06:33.609Z,3.50
2022-11-19T21:09:00.845Z,3.50
2022-11-19T21:11:27.683Z,3.50
2022-11-19T21:13:54.559Z,3.40
2022-11-19T21:16:23.918Z,3.50
2022-11-19T21:18:51.343Z,3.40
2022-11-19T21:21:20.295Z,3.50
2022-11-19T21:23:47.307Z,3.50
2022-11-19T21:26:19.841Z,3.50
2022-11-19T21:28:51.890Z,3.50
2022-11-19T21:31:20.442Z,3.40
2022-11-19T21:33:47.254Z,3.50
2022-11-19T21:36:14.098Z,3.40
2022-11-19T21:38:41.088Z,3.40
2022-11-19T21:41:07.972Z,3.40
2022-11-19T21:43:35.633Z,3.40
2022-11-19T21:46:07.162Z,3.40
2022-11-19T21:48:34.078Z,3.40
2022-11-19T21:51:05.744Z,3.40
2022-11-19T21:53:32.580Z,3.50
2022-11-19T21:55:59.328Z,3.50
2022-11-19T21:58:26.390Z,3.40
2022-11-19T22:01:01.278Z,3.50
2022-11-19T22:03:31.057Z,3.50
2022-11-19T22:06:02.291Z,3.50
2022-11-19T22:08:32.871Z,3.50
2022-11-19T22:10:59.946Z,3.50
2022-11-19T22:13:26.889Z,3.50
2022-11-19T22:16:02.942Z,3.50
2022-11-19T22:18:29.712Z,3.50
2022-11-19T22:21:03.410Z,3.50
2022-11-19T22:23:30.406Z,3.40
2022-11-19T22:25:57.188Z,3.40
2022-11-19T22:28:23.952Z,3.40
2022-11-19T22:30:54.338Z,3.40
2022-11-19T22:33:21.266Z,3.40
2022-11-19T22:35:48.416Z,3.40
2022-11-19T22:38:15.684Z,3.40
2022-11-19T22:40:42.548Z,3.40
2022-11-19T22:43:09.278Z,3.40
2022-11-19T22:45:36.040Z,3.40
2022-11-19T22:48:02.885Z,3.30
2022-11-19T22:50:29.662Z,3.30
2022-11-19T22:52:56.467Z,3.30
2022-11-19T22:55:23.190Z,3.40
2022-11-19T22:57:49.966Z,3.30
2022-11-19T23:00:36.681Z,3.30
2022-11-19T23:03:03.672Z,3.30
2022-11-19T23:05:35.831Z,3.30
2022-11-19T23:08:06.094Z,3.30
2022-11-19T23:10:33.618Z,3.30
2022-11-19T23:13:19.998Z,3.30
2022-11-19T23:16:03.876Z,3.30
2022-11-19T23:18:33.307Z,3.30
2022-11-19T23:21:06.501Z,3.30
2022-11-19T23:23:33.580Z,3.30
2022-11-19T23:26:02.109Z,3.30
2022-11-19T23:28:30.340Z,3.30
2022-11-19T23:30:57.362Z,3.30
2022-11-19T23:33:24.149Z,3.30
2022-11-19T23:35:50.925Z,3.30
2022-11-19T23:38:17.699Z,3.30
2022-11-19T23:40:44.808Z,3.30
2022-11-19T23:43:11.748Z,3.30
2022-11-19T23:45:38.533Z,3.30
2022-11-19T23:48:05.643Z,3.30
2022-11-19T23:50:32.423Z,3.30
2022-11-19T23:52:59.196Z,3.30
2022-11-19T23:55:25.945Z,3.30
2022-11-19T23:57:52.758Z,3.30
